TimeCDT,TemperatureF,Dew PointF,Humidity,Sea Level PressureIn,VisibilityMPH,Wind Direction,Wind SpeedMPH,Gust SpeedMPH,PrecipitationIn,Events,Conditions,WindDirDegrees,DateUTC
12:53 AM,37.9,28.0,68,30.10,10.0,Calm,Calm,-,N/A,,Clear,0,2011-10-31 05:53:00
1:53 AM,36.0,27.0,70,30.13,10.0,NW,3.5,-,N/A,,Clear,310,2011-10-31 06:53:00
2:53 AM,35.1,27.0,72,30.12,10.0,Calm,Calm,-,N/A,,Clear,0,2011-10-31 07:53:00
3:53 AM,33.1,27.0,78,30.12,10.0,Calm,Calm,-,N/A,,Clear,0,2011-10-31 08:53:00
4:53 AM,33.1,25.0,72,30.12,10.0,Calm,Calm,-,N/A,,Clear,0,2011-10-31 09:53:00
5:53 AM,33.1,27.0,78,30.12,10.0,Calm,Calm,-,N/A,,Clear,0,2011-10-31 10:53:00
6:53 AM,30.9,26.1,82,30.13,10.0,Calm,Calm,-,N/A,,Clear,0,2011-10-31 11:53:00
7:53 AM,30.9,26.1,82,30.13,10.0,Calm,Calm,-,N/A,,Clear,0,2011-10-31 12:53:00
8:53 AM,35.1,30.9,85,30.13,10.0,Calm,Calm,-,N/A,,Clear,0,2011-10-31 13:53:00
9:53 AM,44.1,30.9,60,30.12,10.0,East,3.5,-,N/A,,Clear,90,2011-10-31 14:53:00
10:53 AM,54.0,32.0,43,30.11,10.0,Calm,Calm,-,N/A,,Clear,0,2011-10-31 15:53:00
11:53 AM,60.1,32.0,35,30.09,10.0,Variable,3.5,-,N/A,,Clear,0,2011-10-31 16:53:00
12:53 PM,63.0,32.0,31,30.06,10.0,South,8.1,-,N/A,,Clear,180,2011-10-31 17:53:00
1:53 PM,66.0,32.0,28,30.03,10.0,SSE,4.6,-,N/A,,Clear,160,2011-10-31 18:53:00
2:53 PM,69.1,30.9,24,30.00,10.0,SSW,8.1,-,N/A,,Clear,200,2011-10-31 19:53:00
3:53 PM,71.1,30.0,22,29.99,10.0,SSW,5.8,-,N/A,,Clear,210,2011-10-31 20:53:00
4:53 PM,72.0,30.0,21,29.96,10.0,South,9.2,-,N/A,,Clear,190,2011-10-31 21:53:00
5:53 PM,70.0,30.0,23,29.96,10.0,South,5.8,-,N/A,,Clear,170,2011-10-31 22:53:00
6:53 PM,64.0,30.9,29,29.96,10.0,South,3.5,-,N/A,,Clear,180,2011-10-31 23:53:00
7:53 PM,55.9,30.9,39,29.97,10.0,Calm,Calm,-,N/A,,Clear,0,2011-11-01 00:53:00
8:53 PM,63.0,35.1,35,29.96,10.0,South,6.9,-,N/A,,Clear,180,2011-11-01 01:53:00
9:53 PM,61.0,36.0,39,29.98,10.0,SSW,5.8,-,N/A,,Clear,210,2011-11-01 02:53:00
10:53 PM,61.0,36.0,39,29.98,10.0,SSW,5.8,-,N/A,,Clear,200,2011-11-01 03:53:00
11:53 PM,57.9,36.0,44,29.97,10.0,South,6.9,-,N/A,,Clear,190,2011-11-01 04:53:00